Time;durP1;ratioP1;P1;durP2;ratioP2;P2;SDS_P1;SDS_P2;PMS_P1;PMS_P2;Temp;Humidity;BMP_temperature;BMP_pressure;BME280_temperature;BME280_humidity;BME280_pressure;Samples;Min_cycle;Max_cycle;Signal;HPM_P1;HPM_P2
2023/04/18 00:02:27;;;;;;;11.32;9.57;;;;;;;10.74;86.75;102493.75;5306635;28;20110;-70
2023/04/18 00:04:59;;;;;;;12.32;9.48;;;;;;;10.75;84.90;102495.41;5306048;28;20027;-71
2023/04/18 00:07:30;;;;;;;11.48;9.95;;;;;;;10.68;86.41;102494.97;5301476;28;20465;-70
2023/04/18 00:10:02;;;;;;;10.93;9.43;;;;;;;10.58;87.61;102492.97;5297734;28;20458;-71
2023/04/18 00:12:35;;;;;;;10.23;9.10;;;;;;;10.62;88.68;102491.84;5300803;28;20028;-72
2023/04/18 00:15:07;;;;;;;12.88;10.00;;;;;;;10.56;86.87;102486.97;5291571;28;20023;-73
2023/04/18 00:17:39;;;;;;;11.75;9.27;;;;;;;10.59;88.49;102486.78;5297821;28;20118;-71
2023/04/18 00:20:11;;;;;;;10.85;9.32;;;;;;;10.61;88.29;102485.75;5300823;28;20507;-71
2023/04/18 00:22:43;;;;;;;11.53;9.63;;;;;;;10.62;87.60;102489.22;5303666;28;20507;-71
2023/04/18 00:25:17;;;;;;;13.43;10.30;;;;;;;10.60;87.82;102489.28;5301161;28;20282;-71
2023/04/18 00:27:49;;;;;;;12.05;9.85;;;;;;;10.50;87.47;102484.72;5300427;28;20119;-71
2023/04/18 00:30:20;;;;;;;10.35;9.25;;;;;;;10.54;89.21;102486.22;5300498;28;20051;-71
2023/04/18 00:32:51;;;;;;;12.50;10.30;;;;;;;10.38;88.05;102481.88;5299520;28;20032;-71
2023/04/18 00:35:23;;;;;;;13.52;10.35;;;;;;;10.39;89.26;102490.56;5300514;28;20032;-71
2023/04/18 00:37:55;;;;;;;12.88;10.00;;;;;;;10.28;89.59;102480.69;5300520;28;20708;-71
2023/04/18 00:40:26;;;;;;;12.02;10.25;;;;;;;10.30;90.23;102478.81;5283454;28;20111;-72
2023/04/18 00:42:58;;;;;;;12.02;9.98;;;;;;;10.30;90.81;102486.69;5301525;28;20020;-71
2023/04/18 00:45:29;;;;;;;14.40;9.95;;;;;;;10.30;89.51;102476.19;5285792;28;20026;-70
2023/04/18 00:48:00;;;;;;;14.32;10.10;;;;;;;10.29;89.97;102471.91;5302184;28;20089;-73
2023/04/18 00:50:32;;;;;;;12.43;9.93;;;;;;;10.21;89.79;102477.56;5301639;28;20270;-71
2023/04/18 00:53:03;;;;;;;12.65;10.88;;;;;;;10.24;89.13;102479.16;5298854;28;20106;-71
2023/04/18 00:55:35;;;;;;;12.50;10.48;;;;;;;10.26;88.79;102481.72;5297160;28;20078;-71
2023/04/18 00:58:06;;;;;;;13.82;9.95;;;;;;;10.21;85.37;102468.84;5282110;28;20109;-71
2023/04/18 01:00:38;;;;;;;13.20;10.13;;;;;;;10.19;83.75;102471.56;5279990;28;20052;-70
2023/04/18 01:03:09;;;;;;;13.68;9.43;;;;;;;10.29;81.13;102479.75;5280358;28;20062;-71
2023/04/18 01:05:41;;;;;;;14.30;9.43;;;;;;;10.21;80.75;102468.84;5275273;28;20123;-72
2023/04/18 01:08:13;;;;;;;10.57;8.80;;;;;;;10.22;78.33;102476.59;5280891;28;20187;-70
2023/04/18 01:10:44;;;;;;;12.55;9.38;;;;;;;10.22;76.90;102479.22;5277364;28;20028;-71
2023/04/18 01:13:17;;;;;;;11.60;9.45;;;;;;;10.28;74.65;102472.84;5278270;28;20032;-70
2023/04/18 01:15:50;;;;;;;13.65;9.13;;;;;;;10.28;73.56;102477.25;5281047;28;20035;-71
2023/04/18 01:18:23;;;;;;;13.00;9.50;;;;;;;10.28;71.38;102475.47;5284213;28;20017;-72
2023/04/18 01:20:55;;;;;;;11.32;8.35;;;;;;;10.14;72.13;102473.59;5285784;28;20053;-71
2023/04/18 01:23:27;;;;;;;10.50;8.60;;;;;;;10.24;73.17;102474.75;5281160;28;20576;-71
2023/04/18 01:25:58;;;;;;;12.35;8.82;;;;;;;10.17;70.68;102476.03;5278298;28;20032;-71
2023/04/18 01:28:30;;;;;;;10.82;8.68;;;;;;;10.13;70.83;102479.75;5279482;28;20530;-70
2023/04/18 01:31:01;;;;;;;11.15;8.85;;;;;;;10.03;71.43;102468.13;5280788;28;20020;-70
2023/04/18 01:33:32;;;;;;;13.43;9.60;;;;;;;10.14;71.63;102470.13;5278701;28;20077;-71
2023/04/18 01:36:04;;;;;;;13.77;9.07;;;;;;;10.03;70.73;102467.28;5279234;28;20024;-72
2023/04/18 01:38:35;;;;;;;11.85;9.10;;;;;;;10.01;70.86;102467.38;5282323;28;20485;-71
2023/04/18 01:41:07;;;;;;;11.00;8.10;;;;;;;9.99;71.35;102456.97;5276086;28;20543;-71
2023/04/18 01:43:38;;;;;;;10.13;8.43;;;;;;;9.92;70.21;102457.41;5283981;28;20512;-70
2023/04/18 01:46:09;;;;;;;12.43;9.68;;;;;;;9.97;70.89;102460.63;5277118;28;20366;-70
2023/04/18 01:48:40;;;;;;;14.50;9.18;;;;;;;9.88;71.61;102463.75;5279380;28;20039;-72
2023/04/18 01:51:12;;;;;;;14.70;8.88;;;;;;;9.87;72.98;102462.06;5276921;28;20959;-70
2023/04/18 01:53:44;;;;;;;12.02;8.93;;;;;;;9.84;74.75;102457.00;5274404;28;20036;-70
2023/04/18 01:56:15;;;;;;;10.32;8.60;;;;;;;9.75;74.68;102453.97;5278737;28;20035;-70
2023/04/18 01:58:46;;;;;;;10.38;9.27;;;;;;;9.69;76.52;102445.59;5276308;28;20192;-70
2023/04/18 02:01:18;;;;;;;11.00;8.55;;;;;;;9.73;75.00;102460.19;5277456;28;20025;-71
2023/04/18 02:03:49;;;;;;;10.13;8.85;;;;;;;9.65;74.34;102447.53;5280221;28;20107;-71
2023/04/18 02:06:20;;;;;;;13.73;9.25;;;;;;;9.54;74.88;102431.59;5277221;28;20024;-72
2023/04/18 02:08:51;;;;;;;13.38;9.15;;;;;;;9.53;74.08;102450.00;5279589;28;20119;-72
2023/04/18 02:11:23;;;;;;;10.80;9.10;;;;;;;9.48;75.28;102445.03;5278849;28;20628;-70
2023/04/18 02:13:54;;;;;;;12.65;8.57;;;;;;;9.44;74.05;102451.34;5278899;28;20095;-71
2023/04/18 02:16:25;;;;;;;10.57;8.98;;;;;;;9.41;74.03;102452.34;5280448;28;20052;-70
2023/04/18 02:18:57;;;;;;;13.40;9.02;;;;;;;9.39;74.98;102448.97;5280619;28;20442;-70
2023/04/18 02:21:29;;;;;;;12.93;9.43;;;;;;;9.43;75.95;102445.28;5280631;28;20020;-71
2023/04/18 02:24:00;;;;;;;13.50;9.20;;;;;;;9.34;74.34;102445.75;5279572;28;20032;-70
2023/04/18 02:26:31;;;;;;;9.57;8.40;;;;;;;9.34;74.07;102437.06;5262477;28;20035;-71
2023/04/18 02:29:02;;;;;;;10.75;8.85;;;;;;;9.21;74.15;102439.50;5280619;28;20024;-70
2023/04/18 02:31:36;;;;;;;11.52;8.70;;;;;;;9.30;75.29;102448.63;5277404;28;20025;-70
2023/04/18 02:34:07;;;;;;;11.55;9.05;;;;;;;9.28;75.21;102440.88;5279145;28;20074;-70
2023/04/18 02:36:38;;;;;;;10.73;9.27;;;;;;;9.20;74.63;102443.03;5264010;28;20481;-70
2023/04/18 02:39:10;;;;;;;11.48;8.43;;;;;;;9.17;75.68;102441.44;5277188;28;20369;-70
2023/04/18 02:41:41;;;;;;;13.02;8.88;;;;;;;9.13;74.48;102452.13;5280675;28;20024;-70
2023/04/18 02:44:12;;;;;;;10.00;8.45;;;;;;;9.07;75.56;102442.84;5279053;28;20596;-72
2023/04/18 02:46:44;;;;;;;10.85;8.57;;;;;;;9.00;75.26;102431.03;5279360;28;20104;-71
2023/04/18 02:49:15;;;;;;;10.05;8.70;;;;;;;8.87;76.91;102445.69;5279816;28;20043;-70
2023/04/18 02:51:46;;;;;;;11.40;8.93;;;;;;;8.82;76.77;102443.28;5280134;28;20124;-70
2023/04/18 02:54:17;;;;;;;11.13;9.02;;;;;;;8.85;77.21;102442.28;5278006;28;20429;-71
2023/04/18 02:56:52;;;;;;;11.70;9.50;;;;;;;8.80;77.86;102445.16;5275094;28;20028;-70
2023/04/18 02:59:23;;;;;;;11.32;8.93;;;;;;;8.71;78.81;102445.59;5261141;28;21009;-71
2023/04/18 03:01:55;;;;;;;11.80;9.00;;;;;;;8.74;77.90;102453.28;5280524;28;20085;-70
2023/04/18 03:04:26;;;;;;;10.63;9.15;;;;;;;8.71;78.22;102448.22;5278497;28;20048;-73
2023/04/18 03:06:58;;;;;;;11.15;8.27;;;;;;;8.69;77.49;102448.31;5281337;28;20477;-71
2023/04/18 03:09:29;;;;;;;10.38;8.98;;;;;;;8.70;79.30;102449.16;5257755;28;20081;-70
2023/04/18 03:12:01;;;;;;;12.25;8.75;;;;;;;8.56;78.18;102443.78;5276617;28;20029;-71
2023/04/18 03:14:32;;;;;;;10.50;8.75;;;;;;;8.61;78.32;102455.69;5277351;28;20017;-71
2023/04/18 03:17:03;;;;;;;12.88;8.80;;;;;;;8.59;78.25;102451.47;5281900;28;20032;-70
2023/04/18 03:19:35;;;;;;;10.70;9.60;;;;;;;8.40;79.46;102433.25;5271285;28;20023;-70
2023/04/18 03:22:06;;;;;;;12.02;8.85;;;;;;;8.48;78.37;102455.44;5283521;28;20028;-70
2023/04/18 03:24:37;;;;;;;13.50;9.57;;;;;;;8.38;79.46;102458.63;5280164;28;20040;-70
2023/04/18 03:27:09;;;;;;;12.75;8.82;;;;;;;8.33;78.56;102455.34;5275890;28;20068;-70
2023/04/18 03:29:40;;;;;;;11.38;8.43;;;;;;;8.34;79.85;102457.91;5277742;28;20028;-70
2023/04/18 03:32:11;;;;;;;16.48;9.68;;;;;;;8.20;79.60;102442.91;5278422;28;20474;-72
2023/04/18 03:34:43;;;;;;;10.70;9.02;;;;;;;8.19;80.37;102454.28;5260658;28;20028;-70
2023/04/18 03:37:14;;;;;;;11.25;8.85;;;;;;;8.15;80.50;102452.72;5280413;28;20136;-71
2023/04/18 03:39:45;;;;;;;11.43;8.75;;;;;;;8.15;79.71;102449.28;5281623;28;20074;-70
2023/04/18 03:42:16;;;;;;;10.50;9.05;;;;;;;8.11;79.94;102440.75;5280316;28;20024;-70
2023/04/18 03:44:48;;;;;;;11.77;9.20;;;;;;;8.13;79.22;102451.94;5280754;28;20042;-71
2023/04/18 03:47:20;;;;;;;12.80;8.75;;;;;;;8.13;78.26;102449.34;5283616;28;20031;-70
2023/04/18 03:49:53;;;;;;;12.80;9.45;;;;;;;7.97;80.51;102445.78;5279041;28;20082;-70
2023/04/18 03:52:24;;;;;;;14.10;9.43;;;;;;;7.98;80.02;102447.47;5262989;28;20022;-71
2023/04/18 03:54:55;;;;;;;11.75;9.85;;;;;;;7.92;81.37;102458.22;5280602;28;20505;-70
2023/04/18 03:57:26;;;;;;;9.93;8.10;;;;;;;7.94;80.84;102459.81;5265936;28;20039;-71
2023/04/18 03:59:58;;;;;;;13.57;9.68;;;;;;;7.92;79.35;102453.00;5283212;28;20028;-70
2023/04/18 04:02:29;;;;;;;12.20;9.35;;;;;;;7.91;80.45;102457.34;5283615;28;20041;-71
2023/04/18 04:05:01;;;;;;;10.38;8.65;;;;;;;7.85;80.17;102456.81;5262929;28;20044;-70
2023/04/18 04:07:32;;;;;;;12.40;9.15;;;;;;;7.88;80.72;102461.88;5284051;28;20024;-72
2023/04/18 04:10:04;;;;;;;13.02;8.95;;;;;;;7.80;79.78;102454.41;5279829;28;20020;-70
2023/04/18 04:12:35;;;;;;;10.00;8.55;;;;;;;7.76;81.44;102455.47;5281699;28;20063;-70
2023/04/18 04:15:07;;;;;;;10.57;8.93;;;;;;;7.77;80.02;102457.19;5280157;28;20237;-70
2023/04/18 04:17:38;;;;;;;11.07;8.95;;;;;;;7.77;81.44;102463.25;5283069;28;20032;-70
2023/04/18 04:20:10;;;;;;;10.07;8.45;;;;;;;7.74;81.04;102467.75;5284804;28;20425;-71
2023/04/18 04:22:41;;;;;;;11.38;8.90;;;;;;;7.73;80.18;102460.84;5283661;28;20204;-71
2023/04/18 04:25:13;;;;;;;9.90;8.45;;;;;;;7.65;83.14;102445.56;5277937;28;20024;-71
2023/04/18 04:27:44;;;;;;;11.05;8.15;;;;;;;7.70;80.44;102464.44;5275294;28;20070;-71
2023/04/18 04:30:15;;;;;;;10.32;8.95;;;;;;;7.69;80.98;102454.94;5276531;28;20029;-71
2023/04/18 04:32:47;;;;;;;11.88;8.73;;;;;;;7.67;81.21;102454.16;5279073;28;20089;-71
2023/04/18 04:35:18;;;;;;;12.30;9.38;;;;;;;7.66;80.92;102449.84;5280129;28;20024;-71
2023/04/18 04:37:50;;;;;;;11.02;8.20;;;;;;;7.65;80.91;102465.56;5279083;28;20489;-72
2023/04/18 04:40:22;;;;;;;11.98;8.70;;;;;;;7.62;81.98;102463.13;5285203;28;20775;-72
2023/04/18 04:42:55;;;;;;;12.15;9.13;;;;;;;7.65;80.99;102460.34;5262341;28;20062;-71
2023/04/18 04:45:26;;;;;;;10.40;8.52;;;;;;;7.61;81.53;102453.56;5280703;28;20562;-72
2023/04/18 04:47:58;;;;;;;13.82;9.85;;;;;;;7.60;81.38;102464.94;5275080;28;20047;-71
2023/04/18 04:50:29;;;;;;;12.27;9.40;;;;;;;7.55;82.06;102463.38;5275800;28;20028;-71
2023/04/18 04:53:00;;;;;;;10.65;9.10;;;;;;;7.58;81.98;102467.63;5279142;28;20043;-71
2023/04/18 04:55:32;;;;;;;10.68;8.35;;;;;;;7.57;81.49;102471.13;5280397;28;20630;-71
2023/04/18 04:58:03;;;;;;;11.18;9.00;;;;;;;7.55;81.25;102468.59;5264388;28;20050;-71
2023/04/18 05:00:34;;;;;;;11.75;8.95;;;;;;;7.55;82.17;102462.56;5275581;28;20016;-71
2023/04/18 05:03:06;;;;;;;10.75;8.57;;;;;;;7.49;82.15;102473.25;5276119;28;20054;-71
2023/04/18 05:05:38;;;;;;;10.25;8.27;;;;;;;7.43;82.56;102468.34;5264657;28;20039;-71
2023/04/18 05:08:09;;;;;;;10.95;8.75;;;;;;;7.41;82.29;102465.78;5281720;28;20955;-70
2023/04/18 05:10:42;;;;;;;10.95;8.40;;;;;;;7.47;82.20;102469.88;5279489;28;20040;-71
2023/04/18 05:13:13;;;;;;;12.70;9.65;;;;;;;7.43;81.73;102473.56;5279300;28;20035;-71
2023/04/18 05:15:44;;;;;;;10.10;8.45;;;;;;;7.46;82.03;102474.25;5281572;28;20402;-71
2023/04/18 05:18:15;;;;;;;10.63;8.50;;;;;;;7.44;81.00;102470.88;5284154;28;20090;-71
2023/04/18 05:20:47;;;;;;;9.23;8.18;;;;;;;7.46;81.80;102478.59;5263447;28;20115;-71
2023/04/18 05:23:18;;;;;;;14.80;8.73;;;;;;;7.50;81.55;102477.53;5281128;28;20077;-71
2023/04/18 05:25:50;;;;;;;11.88;8.50;;;;;;;7.52;81.73;102481.78;5277448;28;20056;-71
2023/04/18 05:28:25;;;;;;;12.52;9.18;;;;;;;7.60;80.77;102485.81;5279764;28;20027;-70
2023/04/18 05:31:00;;;;;;;10.50;8.40;;;;;;;7.50;81.57;102485.38;5259173;28;20040;-69
2023/04/18 05:33:31;;;;;;;11.02;8.63;;;;;;;7.44;80.74;102477.84;5280087;28;20556;-69
2023/04/18 05:36:03;;;;;;;11.32;8.43;;;;;;;7.45;81.06;102482.13;5280884;28;20024;-69
2023/04/18 05:38:34;;;;;;;10.20;7.97;;;;;;;7.50;81.59;102491.44;5281250;28;20039;-69
2023/04/18 05:41:05;;;;;;;10.57;8.23;;;;;;;7.47;79.88;102480.31;5275894;28;20032;-69
2023/04/18 05:43:36;;;;;;;13.10;9.20;;;;;;;7.51;82.57;102493.13;5281489;28;20028;-69
2023/04/18 05:46:08;;;;;;;9.68;8.00;;;;;;;7.60;81.62;102496.25;5273839;28;20039;-69
2023/04/18 05:48:39;;;;;;;9.60;8.50;;;;;;;7.59;80.64;102484.97;5274040;28;20459;-70
2023/04/18 05:51:10;;;;;;;10.35;8.15;;;;;;;7.79;81.68;102504.91;5274924;28;20381;-69
2023/04/18 05:53:42;;;;;;;11.27;8.65;;;;;;;7.76;80.48;102498.06;5278464;28;20421;-70
2023/04/18 05:56:13;;;;;;;12.32;8.25;;;;;;;7.76;80.05;102490.22;5261131;28;20020;-69
2023/04/18 05:58:46;;;;;;;12.48;9.15;;;;;;;7.86;80.86;102503.69;5276769;28;20396;-69
2023/04/18 06:01:17;;;;;;;11.23;9.35;;;;;;;7.90;81.19;102501.81;5280078;28;20016;-70
2023/04/18 06:03:49;;;;;;;9.85;8.60;;;;;;;7.98;79.42;102513.56;5277080;28;20409;-69
2023/04/18 06:06:20;;;;;;;14.00;8.88;;;;;;;8.04;79.99;102513.28;5277728;28;20606;-69
2023/04/18 06:08:53;;;;;;;13.05;8.98;;;;;;;8.08;80.22;102505.31;5271572;28;20055;-69
2023/04/18 06:11:24;;;;;;;10.27;7.93;;;;;;;8.14;79.65;102507.59;5268295;28;20874;-69
2023/04/18 06:13:55;;;;;;;10.82;8.80;;;;;;;8.23;80.03;102510.63;5274649;28;20020;-69
2023/04/18 06:16:28;;;;;;;12.93;9.00;;;;;;;8.28;80.27;102510.41;5279224;28;20031;-70
2023/04/18 06:19:01;;;;;;;12.80;8.80;;;;;;;8.36;79.39;102499.59;5259685;28;20036;-69
2023/04/18 06:21:32;;;;;;;11.55;9.48;;;;;;;8.47;78.49;102519.06;5277201;28;20020;-70
2023/04/18 06:24:04;;;;;;;12.25;8.75;;;;;;;8.55;77.61;102517.84;5259698;28;20085;-70
2023/04/18 06:26:36;;;;;;;12.40;9.40;;;;;;;8.57;78.39;102516.84;5259225;28;20442;-69
2023/04/18 06:29:07;;;;;;;13.05;9.05;;;;;;;8.58;78.08;102518.53;5278471;28;20028;-70
2023/04/18 06:31:39;;;;;;;10.52;8.68;;;;;;;8.66;78.69;102518.16;5275640;28;20028;-69
2023/04/18 06:34:11;;;;;;;9.73;8.73;;;;;;;8.60;78.81;102511.50;5280786;28;20095;-69
2023/04/18 06:36:42;;;;;;;11.80;9.38;;;;;;;8.70;78.43;102522.31;5275877;28;20035;-69
2023/04/18 06:39:14;;;;;;;11.82;8.68;;;;;;;8.77;79.97;102518.47;5280048;28;20058;-69
2023/04/18 06:41:47;;;;;;;11.27;9.13;;;;;;;8.84;79.17;102517.25;5280999;28;20020;-69
2023/04/18 06:44:18;;;;;;;11.63;8.93;;;;;;;8.92;79.06;102522.06;5278858;28;20081;-70
2023/04/18 06:46:49;;;;;;;11.60;8.73;;;;;;;8.95;79.38;102509.69;5278003;28;20039;-69
2023/04/18 06:49:21;;;;;;;12.02;8.80;;;;;;;9.12;79.21;102521.88;5255377;28;21146;-69
2023/04/18 06:51:52;;;;;;;11.52;8.32;;;;;;;9.16;79.79;102523.41;5259098;28;20064;-70
2023/04/18 06:54:23;;;;;;;11.60;8.35;;;;;;;9.24;77.25;102523.00;5277574;28;20048;-70
2023/04/18 06:56:54;;;;;;;9.77;8.55;;;;;;;9.26;78.82;102519.41;5275987;28;20033;-70
2023/04/18 06:59:26;;;;;;;9.20;8.00;;;;;;;9.34;77.53;102524.22;5279593;28;20121;-69
2023/04/18 07:01:57;;;;;;;9.88;8.18;;;;;;;9.51;77.09;102531.19;5278691;28;20025;-70
2023/04/18 07:04:28;;;;;;;10.48;8.27;;;;;;;9.45;78.08;102532.34;5275637;28;20425;-70
2023/04/18 07:07:04;;;;;;;10.38;8.27;;;;;;;9.54;78.35;102536.25;5274535;28;20024;-71
2023/04/18 07:09:35;;;;;;;10.30;9.13;;;;;;;9.56;78.55;102533.56;5277367;28;20059;-70
2023/04/18 07:12:06;;;;;;;11.50;8.75;;;;;;;9.66;78.81;102537.34;5276254;28;20127;-70
2023/04/18 07:14:37;;;;;;;11.32;9.02;;;;;;;9.50;78.12;102540.78;5276641;28;20393;-70
2023/04/18 07:17:09;;;;;;;11.07;8.35;;;;;;;9.60;78.52;102542.94;5256398;28;20036;-70
2023/04/18 07:19:40;;;;;;;10.38;7.82;;;;;;;9.58;78.30;102534.31;5283921;28;20028;-70
2023/04/18 07:22:11;;;;;;;9.20;7.85;;;;;;;9.68;79.13;102535.50;5281189;28;20071;-70
2023/04/18 07:24:43;;;;;;;10.85;8.20;;;;;;;9.72;77.97;102547.50;5283631;28;20021;-70
2023/04/18 07:27:14;;;;;;;12.23;8.90;;;;;;;9.74;78.88;102543.88;5279570;28;20027;-70
2023/04/18 07:29:46;;;;;;;10.43;8.18;;;;;;;9.75;77.41;102536.88;5281757;28;20034;-70
2023/04/18 07:32:17;;;;;;;12.40;8.23;;;;;;;9.86;76.70;102542.38;5283582;28;20056;-70
2023/04/18 07:34:50;;;;;;;11.02;8.38;;;;;;;10.00;76.91;102546.88;5279746;28;20073;-70
2023/04/18 07:37:21;;;;;;;10.48;8.05;;;;;;;10.05;77.20;102546.59;5278973;28;20038;-70
2023/04/18 07:39:53;;;;;;;10.20;7.97;;;;;;;10.07;76.32;102555.19;5283129;28;20032;-70
2023/04/18 07:42:24;;;;;;;8.65;7.63;;;;;;;10.03;77.25;102549.28;5258017;28;20035;-71
2023/04/18 07:44:57;;;;;;;9.55;8.45;;;;;;;10.18;77.45;102550.22;5281863;28;20078;-70
2023/04/18 07:47:28;;;;;;;;;;;;;;;10.81;73.32;102551.91;5283519;28;20066;-70
2023/04/18 07:50:00;;;;;;;10.20;7.97;;;;;;;10.38;75.54;102552.59;5276064;28;19916;-70
2023/04/18 07:52:31;;;;;;;7.82;7.03;;;;;;;10.41;74.63;102554.19;5285968;28;20074;-70
2023/04/18 07:55:03;;;;;;;9.27;8.23;;;;;;;10.48;74.92;102555.53;5280588;28;20098;-70
2023/04/18 07:57:34;;;;;;;9.00;7.55;;;;;;;10.56;74.63;102550.69;5273930;28;20036;-70
2023/04/18 08:00:06;;;;;;;8.18;7.22;;;;;;;10.73;73.23;102546.28;5278576;28;20028;-70
2023/04/18 08:02:37;;;;;;;8.57;7.53;;;;;;;10.72;72.69;102553.28;5283875;28;20045;-70
2023/04/18 08:05:09;;;;;;;7.65;6.85;;;;;;;10.73;74.12;102556.75;5283256;28;20016;-70
2023/04/18 08:07:40;;;;;;;9.52;7.63;;;;;;;10.87;72.29;102556.78;5281737;28;20043;-70
2023/04/18 08:10:12;;;;;;;8.35;7.20;;;;;;;10.93;72.69;102562.50;5261568;28;20143;-71
2023/04/18 08:12:43;;;;;;;8.18;7.18;;;;;;;10.90;72.15;102556.59;5277523;28;20071;-70
2023/04/18 08:15:14;;;;;;;9.48;7.75;;;;;;;11.00;73.12;102562.16;5280866;28;20028;-70
2023/04/18 08:17:47;;;;;;;10.55;7.90;;;;;;;10.93;71.42;102561.66;5278275;28;20020;-70
2023/04/18 08:20:19;;;;;;;11.40;8.18;;;;;;;11.14;71.32;102567.44;5279203;28;20032;-70
2023/04/18 08:22:50;;;;;;;8.25;7.43;;;;;;;11.04;70.99;102566.28;5281401;28;20389;-70
2023/04/18 08:25:22;;;;;;;7.93;7.00;;;;;;;11.14;70.91;102564.81;5257868;28;20772;-70
2023/04/18 08:27:54;;;;;;;16.00;8.60;;;;;;;11.14;71.47;102570.91;5260062;28;20031;-70
2023/04/18 08:30:25;;;;;;;8.55;7.35;;;;;;;10.99;70.81;102553.44;5279537;28;20036;-70
2023/04/18 08:32:58;;;;;;;8.25;7.45;;;;;;;11.14;72.41;102572.69;5276675;28;20037;-70
2023/04/18 08:35:29;;;;;;;8.82;7.43;;;;;;;11.14;71.75;102570.06;5279245;28;20028;-69
2023/04/18 08:38:01;;;;;;;8.88;7.05;;;;;;;11.27;71.85;102557.03;5281861;28;20031;-69
2023/04/18 08:40:32;;;;;;;8.63;7.72;;;;;;;11.37;70.89;102563.44;5260853;28;20032;-69
2023/04/18 08:43:08;;;;;;;9.10;8.20;;;;;;;11.42;71.94;102563.97;5279058;28;20440;-69
2023/04/18 08:45:43;;;;;;;7.93;7.13;;;;;;;11.62;72.49;102563.59;5279391;28;20401;-69
2023/04/18 08:48:16;;;;;;;9.10;7.40;;;;;;;11.60;71.00;102570.72;5275433;28;20077;-69
2023/04/18 08:50:47;;;;;;;9.00;7.57;;;;;;;11.71;70.61;102566.59;5274249;28;20020;-70
2023/04/18 08:53:19;;;;;;;9.05;7.32;;;;;;;11.73;68.90;102562.94;5282226;28;20036;-69
2023/04/18 08:55:55;;;;;;;9.88;7.97;;;;;;;11.88;70.11;102563.78;5276381;28;20056;-69
2023/04/18 08:58:26;;;;;;;9.18;7.43;;;;;;;11.78;70.77;102555.63;5273529;28;20441;-69
2023/04/18 09:00:58;;;;;;;9.90;7.60;;;;;;;11.93;68.70;102546.81;5261688;28;20035;-69
2023/04/18 09:03:38;;;;;;;8.18;7.35;;;;;;;12.15;68.49;102548.06;5280105;28;20050;-70
2023/04/18 09:06:19;;;;;;;8.07;7.28;;;;;;;12.50;69.54;102543.16;5277925;28;20397;-70
2023/04/18 09:09:00;;;;;;;8.48;7.57;;;;;;;12.78;66.34;102546.56;5279108;28;20031;-70
2023/04/18 09:11:33;;;;;;;9.48;7.53;;;;;;;12.66;64.74;102546.44;5279006;28;20060;-70
2023/04/18 09:14:04;;;;;;;9.02;7.85;;;;;;;12.78;64.13;102546.56;5276533;28;20291;-71
2023/04/18 09:16:49;;;;;;;8.95;7.68;;;;;;;13.02;64.67;102538.81;5274892;28;20031;-71
2023/04/18 09:19:20;;;;;;;11.20;8.18;;;;;;;12.99;61.98;102542.47;5276873;28;20254;-71
2023/04/18 09:22:00;;;;;;;9.95;8.10;;;;;;;13.14;60.15;102540.59;5260149;28;20024;-71
2023/04/18 09:24:33;;;;;;;9.15;8.15;;;;;;;13.00;58.61;102545.97;5279131;28;20032;-71
2023/04/18 09:27:13;;;;;;;11.57;8.85;;;;;;;13.10;58.48;102537.31;5281641;28;20381;-71
2023/04/18 09:29:48;;;;;;;8.60;7.70;;;;;;;12.92;57.83;102543.84;5282123;28;20036;-71
2023/04/18 09:32:24;;;;;;;8.50;7.25;;;;;;;12.83;59.52;102536.56;5277298;28;20033;-71
2023/04/18 09:34:57;;;;;;;10.20;8.23;;;;;;;12.65;60.28;102541.25;5262029;28;20533;-71
2023/04/18 09:37:29;;;;;;;10.23;6.90;;;;;;;12.71;59.44;102537.41;5276864;28;20031;-71
2023/04/18 09:40:16;;;;;;;8.75;7.70;;;;;;;13.09;59.22;102537.44;5279732;28;20028;-71
2023/04/18 09:42:51;;;;;;;7.57;6.80;;;;;;;12.82;57.82;102533.09;5278222;28;20126;-72
2023/04/18 09:45:23;;;;;;;7.15;6.45;;;;;;;12.72;58.92;102534.66;5275744;28;20024;-72
2023/04/18 09:47:55;;;;;;;7.63;6.82;;;;;;;12.77;58.72;102527.31;5276699;28;20693;-72
2023/04/18 09:50:26;;;;;;;8.80;7.15;;;;;;;12.78;59.41;102529.00;5275270;28;20055;-71
2023/04/18 09:52:58;;;;;;;7.97;7.13;;;;;;;12.75;58.37;102525.72;5274659;28;20035;-71
2023/04/18 09:55:30;;;;;;;8.95;7.10;;;;;;;13.03;59.17;102522.06;5277873;28;20040;-71
2023/04/18 09:58:03;;;;;;;7.65;6.57;;;;;;;13.14;58.70;102520.41;5276849;28;20398;-71
2023/04/18 10:00:37;;;;;;;6.65;5.97;;;;;;;13.20;57.40;102527.00;5278892;28;20546;-71
2023/04/18 10:03:11;;;;;;;8.00;6.40;;;;;;;13.38;56.97;102525.78;5276232;28;20255;-72
2023/04/18 10:05:43;;;;;;;7.80;6.18;;;;;;;13.53;56.95;102521.22;5276570;28;20025;-71
2023/04/18 10:08:15;;;;;;;9.20;6.50;;;;;;;13.61;55.28;102524.16;5278835;28;20032;-72
2023/04/18 10:10:46;;;;;;;7.65;6.40;;;;;;;13.48;54.69;102520.69;5260075;28;20032;-72
2023/04/18 10:13:18;;;;;;;10.13;5.15;;;;;;;13.49;54.42;102518.94;5278641;28;20042;-72
2023/04/18 10:15:51;;;;;;;5.75;4.72;;;;;;;13.44;54.25;102521.84;5277626;28;20063;-72
2023/04/18 10:18:23;;;;;;;6.78;6.07;;;;;;;13.19;55.05;102522.72;5277138;28;20157;-72
2023/04/18 10:21:04;;;;;;;6.88;5.45;;;;;;;13.46;55.40;102532.28;5275646;28;20031;-72
2023/04/18 10:23:39;;;;;;;6.15;5.55;;;;;;;13.39;55.49;102529.25;5281276;28;20396;-72
2023/04/18 10:26:10;;;;;;;5.68;4.72;;;;;;;13.20;54.89;102523.53;5279775;28;20032;-72
2023/04/18 10:28:55;;;;;;;5.47;4.57;;;;;;;13.33;55.31;102538.44;5278746;28;20024;-72
2023/04/18 10:31:28;;;;;;;5.32;4.80;;;;;;;13.27;55.20;102528.31;5274241;28;20016;-72
2023/04/18 10:34:00;;;;;;;4.97;3.90;;;;;;;13.19;53.62;102538.50;5273653;28;20036;-72
2023/04/18 10:36:31;;;;;;;6.57;4.15;;;;;;;13.06;54.38;102525.31;5276548;28;20460;-72
2023/04/18 10:39:20;;;;;;;6.38;4.60;;;;;;;13.22;53.46;102534.78;5275562;28;20340;-72
2023/04/18 10:41:52;;;;;;;5.88;5.28;;;;;;;13.02;53.89;102518.59;5255444;28;20162;-71
2023/04/18 10:44:24;;;;;;;6.28;5.03;;;;;;;13.22;53.41;102532.16;5280868;28;20024;-72
2023/04/18 10:46:55;;;;;;;5.70;5.13;;;;;;;13.31;52.83;102535.03;5275069;28;20029;-72
2023/04/18 10:49:27;;;;;;;6.30;5.10;;;;;;;13.41;53.67;102526.50;5275689;28;20024;-72
2023/04/18 10:52:01;;;;;;;4.80;4.30;;;;;;;13.49;53.66;102527.66;5268426;28;20092;-72
2023/04/18 10:54:36;;;;;;;;;;;;;;;14.31;52.48;102534.00;5262291;28;20052;-71
2023/04/18 10:57:08;;;;;;;5.60;4.70;;;;;;;13.61;52.63;102528.59;5281477;28;19947;-72
2023/04/18 10:59:42;;;;;;;5.85;5.15;;;;;;;13.68;52.94;102536.91;5297912;28;20439;-72
2023/04/18 11:02:31;;;;;;;7.32;5.00;;;;;;;14.03;53.79;102526.47;5296884;28;20028;-72
2023/04/18 11:05:03;;;;;;;5.93;5.22;;;;;;;13.67;53.00;102524.66;5300008;28;20587;-72
2023/04/18 11:07:38;;;;;;;5.85;5.25;;;;;;;13.51;52.85;102530.16;5296402;28;20062;-72
2023/04/18 11:10:09;;;;;;;5.50;5.00;;;;;;;13.46;53.15;102525.25;5301100;28;20028;-72
2023/04/18 11:12:41;;;;;;;5.82;5.22;;;;;;;13.43;53.80;102529.88;5300888;28;20032;-72
2023/04/18 11:15:16;;;;;;;6.07;5.25;;;;;;;13.65;54.08;102526.56;5302214;28;20012;-72
2023/04/18 11:17:59;;;;;;;6.80;5.55;;;;;;;13.81;54.28;102533.25;5299767;28;20055;-72
2023/04/18 11:20:38;;;;;;;6.60;5.78;;;;;;;13.77;53.82;102539.69;5299626;28;20024;-73
2023/04/18 11:23:23;;;;;;;6.32;5.25;;;;;;;13.74;55.06;102525.91;5295161;28;20081;-72
2023/04/18 11:25:55;;;;;;;5.72;5.10;;;;;;;13.83;55.94;102520.00;5295602;28;20122;-72
2023/04/18 11:28:27;;;;;;;7.20;6.28;;;;;;;13.77;55.22;102525.69;5299426;28;20016;-72
2023/04/18 11:31:00;;;;;;;7.32;6.22;;;;;;;13.80;54.67;102523.69;5297436;28;20116;-73
2023/04/18 11:33:32;;;;;;;6.90;6.20;;;;;;;13.65;54.84;102519.50;5279594;28;20039;-72
2023/04/18 11:36:03;;;;;;;10.27;7.05;;;;;;;13.58;54.22;102515.63;5296303;28;20023;-72
2023/04/18 11:38:38;;;;;;;8.30;6.65;;;;;;;13.67;54.87;102511.50;5296224;28;20073;-73
2023/04/18 11:41:14;;;;;;;9.15;8.25;;;;;;;13.68;54.63;102514.03;5294918;28;20434;-72
2023/04/18 11:43:45;;;;;;;8.35;7.55;;;;;;;13.62;55.25;102517.09;5300460;28;20039;-72
2023/04/18 11:46:16;;;;;;;8.05;7.20;;;;;;;13.69;55.68;102518.34;5299712;28;20023;-72
2023/04/18 11:48:49;;;;;;;9.50;7.75;;;;;;;13.68;55.95;102516.66;5301264;28;20047;-72